Time;durP1;ratioP1;P1;durP2;ratioP2;P2;SDS_P1;SDS_P2;PMS_P1;PMS_P2;Temp;Humidity;BMP_temperature;BMP_pressure;BME280_temperature;BME280_humidity;BME280_pressure;Samples;Min_cycle;Max_cycle;Signal;HPM_P1;HPM_P2
2022/09/08 00:01:23;;;;;;;6.03;5.25;;;;;;;11.79;100.00;91304.47;5030802;28;20025;-63
2022/09/08 00:03:50;;;;;;;7.22;5.35;;;;;;;11.84;100.00;91300.91;5030731;28;20495;-64
2022/09/08 00:06:17;;;;;;;6.53;4.75;;;;;;;11.77;100.00;91295.19;5030646;28;20041;-64
2022/09/08 00:08:45;;;;;;;6.18;4.45;;;;;;;11.67;100.00;91301.56;5030789;28;20029;-64
2022/09/08 00:11:12;;;;;;;7.35;5.25;;;;;;;11.66;100.00;91311.44;5030704;28;20108;-64
2022/09/08 00:13:41;;;;;;;7.65;4.63;;;;;;;11.70;100.00;91307.09;5030691;28;20042;-64
2022/09/08 00:16:08;;;;;;;5.97;4.50;;;;;;;11.68;100.00;91316.50;5030672;28;20113;-63
2022/09/08 00:18:35;;;;;;;5.75;5.03;;;;;;;11.67;100.00;91306.88;5030599;28;20491;-64
2022/09/08 00:21:01;;;;;;;7.03;4.18;;;;;;;11.67;100.00;91307.69;5030648;28;20060;-64
2022/09/08 00:23:26;;;;;;;6.55;3.83;;;;;;;11.58;100.00;91312.19;5030545;28;20061;-64
2022/09/08 00:25:52;;;;;;;5.30;4.30;;;;;;;11.63;100.00;91311.25;5030678;28;20022;-64
2022/09/08 00:28:17;;;;;;;5.60;4.65;;;;;;;11.56;100.00;91309.03;5030708;28;20029;-64
2022/09/08 00:30:42;;;;;;;6.18;4.38;;;;;;;11.59;100.00;91311.09;5030606;28;20490;-64
2022/09/08 00:33:08;;;;;;;5.00;4.40;;;;;;;11.54;100.00;91305.13;5030485;28;20055;-64
2022/09/08 00:35:34;;;;;;;6.20;4.13;;;;;;;11.51;100.00;91297.72;5030522;28;20517;-64
2022/09/08 00:37:59;;;;;;;6.03;3.88;;;;;;;11.45;100.00;91301.59;5031962;28;20033;-64
2022/09/08 00:40:26;;;;;;;5.07;4.15;;;;;;;11.39;100.00;91303.63;5034215;28;20499;-64
2022/09/08 00:43:01;;;;;;;5.90;4.20;;;;;;;11.30;100.00;91308.09;5034087;28;20064;-64
2022/09/08 00:45:32;;;;;;;7.07;4.63;;;;;;;11.23;100.00;91297.88;5034142;28;20512;-63
2022/09/08 00:48:03;;;;;;;5.32;4.20;;;;;;;11.20;100.00;91295.78;5034045;28;20037;-64
2022/09/08 00:50:29;;;;;;;5.43;4.75;;;;;;;11.20;100.00;91305.66;5034206;28;20404;-64
2022/09/08 00:53:00;;;;;;;7.40;5.55;;;;;;;11.23;100.00;91297.09;5034029;28;20036;-64
2022/09/08 00:55:34;;;;;;;7.38;5.38;;;;;;;11.29;100.00;91290.53;5033938;28;20025;-64
2022/09/08 00:58:00;;;;;;;4.88;4.30;;;;;;;11.24;100.00;91285.34;5033889;28;20041;-64
2022/09/08 01:00:25;;;;;;;5.38;4.32;;;;;;;11.28;100.00;91291.63;5033798;28;20044;-64
2022/09/08 01:02:51;;;;;;;8.38;4.97;;;;;;;11.26;100.00;91281.28;5033920;28;20029;-64
2022/09/08 01:05:24;;;;;;;6.70;4.50;;;;;;;11.29;100.00;91279.88;5033555;28;20459;-64
2022/09/08 01:14:46;;;;;;;6.10;4.65;;;;;;;10.97;100.00;91272.91;4999866;28;20068;-64
2022/09/08 01:17:38;;;;;;;5.63;4.28;;;;;;;10.98;100.00;91280.59;5033439;28;20040;-63
2022/09/08 01:20:08;;;;;;;6.03;4.80;;;;;;;11.01;100.00;91284.53;5029494;28;20076;-63
2022/09/08 01:22:55;;;;;;;4.90;4.10;;;;;;;10.93;100.00;91282.59;5033319;28;20036;-64
2022/09/08 01:25:33;;;;;;;6.43;5.00;;;;;;;10.76;100.00;91288.56;5033339;28;20505;-64
2022/09/08 01:28:07;;;;;;;9.50;5.30;;;;;;;10.71;100.00;91292.13;5033285;28;20045;-64
2022/09/08 01:30:35;;;;;;;6.32;5.10;;;;;;;10.64;100.00;91285.66;5033230;28;20021;-64
2022/09/08 01:33:05;;;;;;;7.22;4.60;;;;;;;10.83;100.00;91298.78;5033055;28;20048;-64
2022/09/08 01:35:34;;;;;;;5.97;4.75;;;;;;;10.90;100.00;91299.19;5033152;28;20108;-64
2022/09/08 01:37:59;;;;;;;7.03;4.82;;;;;;;10.86;100.00;91298.19;5033069;28;20873;-64
2022/09/08 01:40:25;;;;;;;5.60;4.60;;;;;;;10.86;100.00;91287.53;5032960;28;20029;-64
2022/09/08 01:42:50;;;;;;;5.72;4.95;;;;;;;10.74;100.00;91301.41;5032815;28;20083;-64
2022/09/08 01:45:16;;;;;;;4.78;4.22;;;;;;;10.66;100.00;91296.78;5032932;28;20395;-64
2022/09/08 01:47:42;;;;;;;7.28;4.88;;;;;;;10.66;100.00;91283.47;5033136;28;20109;-64
2022/09/08 01:50:09;;;;;;;5.72;4.47;;;;;;;10.59;100.00;91288.44;5031722;28;20064;-64
2022/09/08 01:52:34;;;;;;;5.00;4.07;;;;;;;10.59;100.00;91277.78;5032746;28;20091;-64
2022/09/08 01:55:00;;;;;;;5.75;4.85;;;;;;;10.57;100.00;91291.34;5032784;28;20500;-64
2022/09/08 01:57:26;;;;;;;5.78;4.30;;;;;;;10.53;100.00;91294.91;5032764;28;20070;-64
2022/09/08 01:59:51;;;;;;;6.07;4.90;;;;;;;10.48;100.00;91290.50;5032734;28;20025;-64
2022/09/08 02:02:17;;;;;;;6.95;5.30;;;;;;;10.47;100.00;91292.38;5032485;28;20104;-64
2022/09/08 02:04:42;;;;;;;6.75;5.07;;;;;;;10.44;100.00;91294.84;5035909;28;20422;-63
2022/09/08 02:07:08;;;;;;;6.68;4.90;;;;;;;10.47;100.00;91286.28;5052513;28;20029;-63
2022/09/08 02:09:34;;;;;;;5.55;5.00;;;;;;;10.53;100.00;91292.25;5052417;28;20079;-63
2022/09/08 02:11:59;;;;;;;7.40;6.15;;;;;;;10.53;100.00;91279.75;5052617;28;20040;-63
2022/09/08 02:14:26;;;;;;;7.15;5.05;;;;;;;10.48;100.00;91278.00;5034359;28;20037;-63
2022/09/08 02:16:51;;;;;;;7.63;5.15;;;;;;;10.50;100.00;91281.13;5052264;28;20040;-63
2022/09/08 02:19:17;;;;;;;5.82;4.78;;;;;;;10.40;100.00;91280.56;5034399;28;20025;-63
2022/09/08 02:21:42;;;;;;;5.88;4.85;;;;;;;10.50;100.00;91275.81;5052152;28;20024;-63
2022/09/08 02:24:08;;;;;;;5.72;4.95;;;;;;;10.33;100.00;91266.88;5052086;28;20025;-64
2022/09/08 02:29:08;;;;;;;7.80;5.20;;;;;;;10.22;100.00;91263.66;5049446;28;20121;-63
2022/09/08 02:31:34;;;;;;;6.70;5.40;;;;;;;10.12;100.00;91263.84;5052217;28;20025;-63
2022/09/08 02:34:01;;;;;;;6.32;4.78;;;;;;;10.07;100.00;91261.25;5051994;28;20132;-63
2022/09/08 02:36:27;;;;;;;6.13;4.28;;;;;;;10.03;100.00;91260.28;5051968;28;20044;-63
2022/09/08 02:38:54;;;;;;;6.40;4.78;;;;;;;10.06;100.00;91265.78;5051718;28;20029;-63
2022/09/08 02:41:20;;;;;;;6.47;4.55;;;;;;;10.08;100.00;91265.50;5051914;28;20146;-63
2022/09/08 02:43:46;;;;;;;6.22;4.70;;;;;;;9.99;100.00;91272.59;5051769;28;20055;-63
2022/09/08 02:46:11;;;;;;;6.55;4.97;;;;;;;9.94;100.00;91272.69;5051726;28;20041;-63
2022/09/08 02:48:37;;;;;;;7.05;4.53;;;;;;;9.86;100.00;91282.16;5051552;28;20459;-63
2022/09/08 02:51:06;;;;;;;5.85;4.75;;;;;;;9.83;100.00;91272.91;5051599;28;20033;-63
2022/09/08 02:53:31;;;;;;;4.97;4.22;;;;;;;9.79;100.00;91279.91;5051529;28;20028;-63
2022/09/08 02:55:58;;;;;;;7.55;4.70;;;;;;;9.73;100.00;91272.28;5051582;28;20033;-63
2022/09/08 02:58:24;;;;;;;6.40;4.80;;;;;;;9.72;100.00;91282.13;5051560;28;20029;-63
2022/09/08 03:00:50;;;;;;;8.50;5.20;;;;;;;9.73;100.00;91273.09;5051161;28;20559;-63
2022/09/08 03:03:16;;;;;;;5.40;4.68;;;;;;;9.71;100.00;91271.81;5033485;28;20021;-63
2022/09/08 03:05:42;;;;;;;6.35;4.68;;;;;;;9.68;100.00;91269.75;5051296;28;20418;-64
2022/09/08 03:08:08;;;;;;;6.13;5.00;;;;;;;9.67;100.00;91271.63;5051086;28;20033;-63
2022/09/08 03:10:35;;;;;;;5.95;4.53;;;;;;;9.60;100.00;91255.25;5051522;28;20040;-63
2022/09/08 03:13:02;;;;;;;6.28;4.40;;;;;;;9.74;100.00;91266.69;5051254;28;20028;-62
2022/09/08 03:15:29;;;;;;;5.30;4.38;;;;;;;9.77;100.00;91271.41;5051295;28;20083;-62
2022/09/08 03:17:54;;;;;;;6.28;4.80;;;;;;;9.81;100.00;91267.09;5051135;28;20111;-65
2022/09/08 03:20:21;;;;;;;6.50;4.30;;;;;;;9.80;100.00;91267.41;5051237;28;20112;-65
2022/09/08 03:22:47;;;;;;;6.45;4.68;;;;;;;9.83;100.00;91269.47;5051345;28;20056;-65
2022/09/08 03:25:12;;;;;;;6.50;4.53;;;;;;;9.85;100.00;91276.03;5051082;28;20056;-65
2022/09/08 03:27:39;;;;;;;6.55;4.35;;;;;;;9.83;100.00;91270.25;5050837;28;20037;-63
2022/09/08 03:30:07;;;;;;;7.13;4.55;;;;;;;9.79;100.00;91276.44;5051039;28;20118;-63
2022/09/08 03:32:37;;;;;;;4.53;3.88;;;;;;;9.74;100.00;91266.69;5051197;28;20037;-63
2022/09/08 03:35:04;;;;;;;5.22;4.60;;;;;;;9.74;100.00;91266.69;5050937;28;20029;-63
2022/09/08 03:37:29;;;;;;;9.23;4.97;;;;;;;9.68;100.00;91269.75;5050758;28;20418;-63
2022/09/08 03:39:55;;;;;;;5.40;4.50;;;;;;;9.75;100.00;91272.78;5050956;28;20021;-63
2022/09/08 03:42:20;;;;;;;6.93;4.57;;;;;;;9.72;100.00;91276.81;5050684;28;20083;-63
2022/09/08 03:44:46;;;;;;;6.65;4.43;;;;;;;9.75;100.00;91275.44;5050877;28;20029;-63
2022/09/08 03:47:12;;;;;;;9.70;5.28;;;;;;;9.70;100.00;91271.03;5050783;28;20106;-63
2022/09/08 03:49:37;;;;;;;11.32;6.43;;;;;;;9.87;100.00;91271.22;5050860;28;20035;-63
2022/09/08 03:52:03;;;;;;;9.10;5.80;;;;;;;9.99;100.00;91277.91;5050839;28;20116;-63
2022/09/08 03:54:47;;;;;;;7.40;4.82;;;;;;;9.98;100.00;91273.69;5050781;28;20051;-63
2022/09/08 03:57:15;;;;;;;6.38;5.13;;;;;;;9.96;100.00;91281.97;5050535;28;20033;-63
2022/09/08 03:59:42;;;;;;;5.25;4.75;;;;;;;10.06;100.00;91278.31;5047854;28;20036;-63
2022/09/08 04:02:08;;;;;;;7.28;4.80;;;;;;;10.04;100.00;91277.81;5050575;28;20025;-63
2022/09/08 04:04:34;;;;;;;9.13;4.90;;;;;;;9.90;100.00;91273.28;5050540;28;20410;-63
2022/09/08 04:06:59;;;;;;;10.27;4.85;;;;;;;9.98;100.00;91269.16;5050370;28;20033;-63
2022/09/08 04:09:25;;;;;;;8.32;4.28;;;;;;;10.00;100.00;91268.88;5050683;28;20060;-63
2022/09/08 04:11:50;;;;;;;8.65;5.28;;;;;;;10.06;100.00;91280.97;5050704;28;20033;-63
2022/09/08 04:14:16;;;;;;;8.38;4.72;;;;;;;10.09;100.00;91272.38;5054064;28;20124;-63
2022/09/08 04:16:42;;;;;;;6.50;5.18;;;;;;;10.12;100.00;91272.59;5054469;28;20076;-64
2022/09/08 04:19:08;;;;;;;7.28;5.18;;;;;;;10.23;100.00;91272.41;5054481;28;20493;-63
2022/09/08 04:21:34;;;;;;;12.07;5.50;;;;;;;10.26;100.00;91262.00;5054393;28;20032;-63
2022/09/08 04:23:59;;;;;;;8.30;5.55;;;;;;;10.38;100.00;91259.59;5054327;28;20032;-63
2022/09/08 04:26:26;;;;;;;7.13;4.90;;;;;;;10.42;100.00;91263.25;5054657;28;20454;-63
2022/09/08 04:28:51;;;;;;;6.45;5.57;;;;;;;10.51;100.00;91265.97;5053985;28;20545;-63
2022/09/08 04:31:17;;;;;;;7.50;5.50;;;;;;;10.58;100.00;91265.56;5054258;28;20049;-63
2022/09/08 04:33:43;;;;;;;8.25;5.43;;;;;;;10.71;100.00;91256.72;5054254;28;20037;-63
2022/09/08 04:36:15;;;;;;;7.03;5.90;;;;;;;10.82;100.00;91263.41;5054267;28;20025;-63
2022/09/08 04:38:41;;;;;;;6.57;4.80;;;;;;;10.93;100.00;91261.31;5054024;28;20584;-63
2022/09/08 04:41:08;;;;;;;7.07;5.05;;;;;;;10.97;100.00;91267.59;5054107;28;20056;-63
2022/09/08 04:43:35;;;;;;;6.80;5.40;;;;;;;11.40;100.00;91267.88;5053917;28;20061;-63
2022/09/08 04:46:06;;;;;;;7.03;4.90;;;;;;;12.01;100.00;91260.22;5053929;28;20037;-63
2022/09/08 04:48:32;;;;;;;8.10;5.10;;;;;;;12.55;100.00;91273.06;5054011;28;20086;-63
2022/09/08 04:50:59;;;;;;;5.30;4.80;;;;;;;12.66;100.00;91268.22;5053900;28;20021;-63
2022/09/08 04:53:26;;;;;;;5.32;4.60;;;;;;;12.59;100.00;91266.00;5053829;28;20036;-65
2022/09/08 04:55:52;;;;;;;6.05;4.40;;;;;;;12.55;100.00;91274.94;5053774;28;20029;-64
2022/09/08 04:58:17;;;;;;;5.28;4.15;;;;;;;13.93;100.00;91272.19;5053856;28;20036;-64
2022/09/08 05:00:44;;;;;;;5.68;4.18;;;;;;;16.68;100.00;91281.00;5053625;28;20036;-63
2022/09/08 05:03:09;;;;;;;5.72;4.22;;;;;;;17.93;100.00;91281.94;5053674;28;20029;-64
2022/09/08 05:05:36;;;;;;;9.05;4.43;;;;;;;17.76;92.41;91277.63;5053557;28;20101;-63
2022/09/08 05:08:02;;;;;;;5.18;3.85;;;;;;;18.73;83.30;91278.19;5053344;28;20033;-64
2022/09/08 05:10:33;;;;;;;4.53;3.13;;;;;;;19.33;71.76;91282.25;5053736;28;20060;-64
2022/09/08 05:12:58;;;;;;;5.57;3.55;;;;;;;18.50;73.83;91280.69;5053407;28;20029;-63
2022/09/08 05:15:24;;;;;;;6.13;4.50;;;;;;;16.46;88.73;91287.59;5053373;28;20035;-64
2022/09/08 05:17:50;;;;;;;8.10;4.80;;;;;;;15.03;100.00;91288.34;5053359;28;20069;-64
2022/09/08 05:20:15;;;;;;;5.22;4.22;;;;;;;16.31;100.00;91290.94;5053306;28;20453;-63
2022/09/08 05:22:41;;;;;;;7.35;4.13;;;;;;;17.96;94.65;91282.03;5053077;28;20494;-63
2022/09/08 05:25:07;;;;;;;5.03;4.20;;;;;;;20.04;76.60;91280.22;5035057;28;20029;-63
2022/09/08 05:27:33;;;;;;;4.32;3.75;;;;;;;21.14;67.35;91279.34;5052911;28;20080;-64
2022/09/08 05:29:58;;;;;;;7.10;4.25;;;;;;;22.95;60.42;91279.94;5053193;28;20486;-65
2022/09/08 05:32:24;;;;;;;4.18;3.35;;;;;;;23.96;54.77;91285.63;5053031;28;20141;-64
2022/09/08 05:34:49;;;;;;;2.95;2.70;;;;;;;24.03;53.43;91284.91;5053333;28;20041;-63
2022/09/08 05:37:15;;;;;;;4.57;3.00;;;;;;;24.70;51.82;91287.03;5052930;28;20029;-64
2022/09/08 05:39:40;;;;;;;4.07;3.22;;;;;;;25.08;49.85;91293.69;5052934;28;20487;-64
2022/09/08 05:42:05;;;;;;;3.80;3.20;;;;;;;24.66;50.80;91278.09;5052712;28;20021;-64
2022/09/08 05:44:31;;;;;;;3.47;3.17;;;;;;;26.18;48.87;91295.47;5052817;28;20478;-64
2022/09/08 05:46:56;;;;;;;4.10;3.60;;;;;;;27.24;46.33;91288.66;5052666;28;20029;-65
2022/09/08 05:49:22;;;;;;;7.50;3.28;;;;;;;28.80;43.64;91288.97;5052778;28;20469;-64
2022/09/08 05:51:52;;;;;;;3.97;3.58;;;;;;;29.55;41.98;91289.84;5052793;28;20552;-65
2022/09/08 05:54:21;;;;;;;4.50;3.15;;;;;;;28.08;44.16;91288.25;5052738;28;20109;-64
2022/09/08 05:56:46;;;;;;;3.65;3.17;;;;;;;29.58;41.76;91291.75;5052581;28;20466;-64
2022/09/08 05:59:12;;;;;;;3.63;2.90;;;;;;;30.09;40.86;91284.97;5052634;28;20025;-64
2022/09/08 06:01:38;;;;;;;4.18;3.53;;;;;;;30.63;39.80;91284.72;5052599;28;20112;-64
2022/09/08 06:04:03;;;;;;;5.10;3.55;;;;;;;30.75;39.98;91288.78;5053151;28;20054;-64
2022/09/08 06:06:30;;;;;;;6.03;3.60;;;;;;;31.38;38.89;91286.59;5052521;28;20037;-64
2022/09/08 06:09:00;;;;;;;3.90;3.40;;;;;;;31.43;38.20;91288.06;5052402;28;20029;-64
2022/09/08 06:11:27;;;;;;;4.25;3.60;;;;;;;31.61;38.12;91302.16;5052329;28;20475;-64
2022/09/08 06:13:53;;;;;;;6.25;4.03;;;;;;;29.42;41.44;91295.13;5052328;28;20505;-64
2022/09/08 06:16:19;;;;;;;4.90;3.55;;;;;;;28.05;43.21;91291.81;5052277;28;20029;-64
2022/09/08 06:18:46;;;;;;;4.38;3.58;;;;;;;29.95;40.93;91293.44;5052198;28;20037;-64
2022/09/08 06:21:23;;;;;;;4.95;3.55;;;;;;;29.48;41.61;91296.97;5052228;28;20059;-64
2022/09/08 06:23:50;;;;;;;5.35;4.07;;;;;;;29.75;40.91;91294.19;5052058;28;20448;-64
2022/09/08 06:26:15;;;;;;;7.05;3.72;;;;;;;30.28;40.31;91295.19;5051946;28;20025;-63
2022/09/08 06:28:59;;;;;;;5.40;3.90;;;;;;;31.97;38.00;91301.28;5051763;28;20434;-64
2022/09/08 06:31:32;;;;;;;7.13;4.43;;;;;;;31.95;37.60;91300.97;5051937;28;20127;-63
2022/09/08 06:34:04;;;;;;;5.07;3.75;;;;;;;31.02;38.85;91303.09;5052182;28;20119;-64
2022/09/08 06:36:42;;;;;;;5.88;4.15;;;;;;;31.42;38.50;91300.28;5051554;28;20401;-63
2022/09/08 06:39:14;;;;;;;4.15;3.55;;;;;;;32.05;37.35;91303.44;5052098;28;20064;-63
2022/09/08 06:42:05;;;;;;;5.93;3.92;;;;;;;32.19;37.19;91291.25;5051961;28;20021;-64
2022/09/08 06:44:35;;;;;;;3.85;3.28;;;;;;;32.32;37.33;91297.63;5051689;28;20044;-64
2022/09/08 06:47:01;;;;;;;5.85;4.13;;;;;;;31.15;38.53;91300.47;5051593;28;20051;-64
2022/09/08 06:49:28;;;;;;;4.45;3.55;;;;;;;31.43;38.53;91297.09;5051643;28;20406;-64
2022/09/08 06:52:07;;;;;;;5.80;3.95;;;;;;;31.29;38.64;91292.69;5051622;28;20025;-64
2022/09/08 06:54:56;;;;;;;4.40;3.08;;;;;;;33.39;35.70;91297.31;5051591;28;20033;-64
2022/09/08 06:57:24;;;;;;;3.47;3.00;;;;;;;34.87;34.10;91303.78;5050694;28;20486;-64
2022/09/08 07:00:11;;;;;;;3.85;3.47;;;;;;;35.14;33.61;91303.19;5051547;28;20138;-64
2022/09/08 07:03:07;;;;;;;4.40;3.40;;;;;;;35.32;33.01;91308.78;5051472;28;20055;-64
2022/09/08 07:05:56;;;;;;;4.00;3.22;;;;;;;35.88;32.42;91310.59;5051511;28;20035;-65
2022/09/08 07:08:41;;;;;;;3.30;3.00;;;;;;;34.28;33.97;91311.00;5051245;28;20021;-64
2022/09/08 07:11:34;;;;;;;4.88;2.95;;;;;;;36.64;31.38;91316.56;5051384;28;20104;-64
2022/09/08 07:14:07;;;;;;;5.03;3.40;;;;;;;36.14;31.87;91321.44;5051396;28;20025;-64
2022/09/08 07:16:40;;;;;;;;;;;;;;;34.75;32.62;91319.22;5051496;28;20037;-64
2022/09/08 07:19:33;;;;;;;3.80;3.03;;;;;;;36.15;31.92;91320.97;5051328;28;20073;-64
2022/09/08 07:21:58;;;;;;;;;;;;;;;34.87;33.47;91319.59;5051620;28;20490;-64
2022/09/08 07:24:33;;;;;;;5.20;3.37;;;;;;;35.68;32.02;91335.13;5051679;28;19917;-64
2022/09/08 07:27:03;;;;;;;5.13;4.20;;;;;;;35.84;31.13;91326.59;5051083;28;20107;-64
2022/09/08 07:29:53;;;;;;;5.65;3.85;;;;;;;35.77;32.02;91335.16;5051107;28;20033;-64
2022/09/08 07:32:28;;;;;;;4.68;3.45;;;;;;;34.28;33.56;91329.56;5051315;28;20076;-64
2022/09/08 07:35:01;;;;;;;6.82;3.60;;;;;;;36.43;31.41;91341.19;5050902;28;20029;-64
2022/09/08 07:37:51;;;;;;;3.97;3.40;;;;;;;37.41;30.88;91333.78;5050878;28;20043;-64
2022/09/08 07:40:21;;;;;;;9.68;4.15;;;;;;;37.22;29.78;91329.44;5038959;28;20498;-65
2022/09/08 07:42:57;;;;;;;5.68;4.80;;;;;;;37.88;29.67;91329.59;5050894;28;20029;-64
2022/09/08 07:45:35;;;;;;;5.20;4.53;;;;;;;37.94;29.59;91327.72;5050860;28;20112;-65
2022/09/08 07:48:12;;;;;;;4.82;3.97;;;;;;;35.87;30.75;91333.22;5052416;28;20032;-64
2022/09/08 07:50:55;;;;;;;4.25;3.85;;;;;;;35.98;30.94;91333.56;5055113;28;20032;-64
2022/09/08 07:53:46;;;;;;;3.95;3.55;;;;;;;35.29;31.85;91331.84;5054971;28;20041;-64
2022/09/08 07:56:32;;;;;;;4.03;3.30;;;;;;;36.50;30.00;91335.34;5054743;28;20047;-65
2022/09/08 07:59:16;;;;;;;4.93;4.18;;;;;;;36.98;30.24;91338.44;5054787;28;20033;-65
2022/09/08 08:02:08;;;;;;;4.22;3.60;;;;;;;37.84;29.54;91340.09;5054755;28;20037;-65
2022/09/08 08:04:54;;;;;;;3.73;3.33;;;;;;;37.85;29.14;91336.06;5054898;28;20037;-64
2022/09/08 08:07:30;;;;;;;3.85;3.45;;;;;;;39.09;27.22;91331.91;5054464;28;20159;-65
2022/09/08 08:10:09;;;;;;;3.60;3.30;;;;;;;37.15;27.73;91334.09;5054807;28;20029;-64
2022/09/08 08:12:35;;;;;;;3.90;3.30;;;;;;;34.99;32.59;91332.59;5054813;28;20036;-64
2022/09/08 08:15:13;;;;;;;3.40;2.97;;;;;;;36.75;30.66;91339.81;5054548;28;20066;-64
2022/09/08 08:17:52;;;;;;;7.05;3.70;;;;;;;38.11;28.98;91336.41;5054397;28;20283;-64
2022/09/08 08:20:38;;;;;;;4.38;3.50;;;;;;;39.08;26.88;91347.03;5054481;28;20037;-64
2022/09/08 08:23:38;;;;;;;5.45;3.75;;;;;;;39.17;27.59;91339.41;5054549;28;20113;-64
2022/09/08 08:26:37;;;;;;;17.95;16.08;;;;;;;37.21;29.92;91333.47;5054220;28;20025;-64
2022/09/08 08:29:21;;;;;;;4.13;3.72;;;;;;;37.31;28.92;91337.78;5054050;28;20410;-64
2022/09/08 08:32:12;;;;;;;4.75;3.90;;;;;;;39.66;26.87;91337.22;5054318;28;20094;-64
2022/09/08 08:34:48;;;;;;;3.83;3.53;;;;;;;39.13;26.96;91338.03;5046584;28;20032;-64
2022/09/08 08:37:24;;;;;;;7.65;6.28;;;;;;;38.33;28.40;91339.69;5054071;28;20037;-64
2022/09/08 08:39:55;;;;;;;4.40;4.00;;;;;;;38.67;29.09;91337.66;5054163;28;20048;-64
2022/09/08 08:42:42;;;;;;;4.43;3.97;;;;;;;40.47;27.09;91308.78;5054310;28;20063;-65
2022/09/08 08:45:26;;;;;;;8.68;7.82;;;;;;;37.53;29.85;91329.25;5054217;28;20104;-64
2022/09/08 08:48:29;;;;;;;24.55;19.90;;;;;;;37.44;30.75;91319.72;5053982;28;20046;-64
2022/09/08 08:51:13;;;;;;;4.07;3.67;;;;;;;33.83;34.01;91309.31;5053916;28;20053;-64
2022/09/08 08:54:02;;;;;;;4.15;3.45;;;;;;;33.04;34.95;91315.69;5053827;28;20406;-64
2022/09/08 08:56:28;;;;;;;4.00;3.60;;;;;;;36.60;30.65;91313.94;5053602;28;20075;-64
2022/09/08 08:59:19;;;;;;;11.07;3.40;;;;;;;39.24;29.10;91310.41;5053178;28;20037;-64
2022/09/08 09:02:10;;;;;;;3.60;3.30;;;;;;;39.33;28.17;91296.41;5053670;28;20025;-64
2022/09/08 09:04:48;;;;;;;4.15;3.50;;;;;;;37.97;29.99;91298.97;5053717;28;20032;-64
2022/09/08 09:07:39;;;;;;;3.10;2.85;;;;;;;37.44;31.05;91303.06;5053806;28;20115;-64
2022/09/08 09:10:28;;;;;;;3.17;2.88;;;;;;;38.72;28.92;91304.38;5053560;28;20467;-64
2022/09/08 09:13:16;;;;;;;4.22;3.45;;;;;;;38.14;29.56;91296.56;5053472;28;20025;-65
2022/09/08 09:16:02;;;;;;;3.05;2.75;;;;;;;33.96;33.79;91284.47;5053515;28;20047;-64
2022/09/08 09:18:46;;;;;;;3.53;3.22;;;;;;;35.86;33.28;91279.84;5053631;28;20398;-64
2022/09/08 09:21:24;;;;;;;3.50;3.15;;;;;;;37.14;30.23;91249.31;5053344;28;20033;-64
2022/09/08 09:24:01;;;;;;;5.35;4.80;;;;;;;37.99;29.83;91263.16;5053561;28;20037;-65
2022/09/08 09:26:32;;;;;;;4.18;3.83;;;;;;;38.52;29.65;91268.06;5053475;28;20087;-64
2022/09/08 09:29:24;;;;;;;4.57;2.83;;;;;;;35.82;31.48;91265.34;5053116;28;20044;-64
2022/09/08 09:32:04;;;;;;;3.15;2.80;;;;;;;35.24;33.66;91260.50;5053155;28;20135;-64
2022/09/08 09:35:13;;;;;;;3.60;3.00;;;;;;;35.22;33.01;91254.69;5053419;28;20120;-65
2022/09/08 09:38:06;;;;;;;4.28;2.67;;;;;;;33.94;32.75;91251.03;5052994;28;20021;-64
2022/09/08 09:40:42;;;;;;;;;;;;;;;36.56;30.46;91252.34;5053465;28;20029;-64
2022/09/08 09:43:19;;;;;;;3.10;2.63;;;;;;;34.07;33.37;91242.66;5052916;28;19955;-64
2022/09/08 09:45:51;;;;;;;3.28;2.92;;;;;;;35.60;32.03;91239.75;5052965;28;20038;-65
2022/09/08 09:49:07;;;;;;;3.40;3.10;;;;;;;38.61;29.02;91232.59;5052858;28;20098;-64
2022/09/08 09:51:32;;;;;;;3.08;2.42;;;;;;;37.64;29.16;91233.09;5052806;28;20383;-65
2022/09/08 09:54:11;;;;;;;4.33;2.87;;;;;;;33.53;34.04;91230.66;5053122;28;20100;-64
2022/09/08 09:57:03;;;;;;;3.17;2.85;;;;;;;32.61;35.28;91234.25;5052646;28;20263;-64
2022/09/08 10:00:14;;;;;;;3.55;3.25;;;;;;;31.80;36.09;91227.03;5053025;28;20029;-64
2022/09/08 10:02:56;;;;;;;3.05;2.42;;;;;;;33.80;32.67;91224.63;5028676;28;20410;-64
2022/09/08 10:05:52;;;;;;;2.63;2.42;;;;;;;33.51;31.99;91216.53;5052606;28;20027;-64
2022/09/08 10:08:42;;;;;;;6.25;3.83;;;;;;;34.91;30.57;91217.97;5052531;28;20486;-64
2022/09/08 10:11:36;;;;;;;4.03;2.55;;;;;;;34.12;31.96;91215.28;5051781;28;20057;-64
2022/09/08 10:14:20;;;;;;;4.75;2.65;;;;;;;37.16;30.31;91215.56;5052405;28;20057;-65
2022/09/08 10:16:56;;;;;;;2.97;2.40;;;;;;;38.57;27.74;91206.22;5052211;28;20024;-64
2022/09/08 10:19:40;;;;;;;3.22;2.65;;;;;;;38.34;28.92;91210.59;5052498;28;20041;-65
2022/09/08 10:22:58;;;;;;;3.72;2.90;;;;;;;40.57;28.00;91207.00;5052086;28;20498;-64
2022/09/08 10:25:48;;;;;;;3.15;2.83;;;;;;;38.50;29.42;91195.47;5038818;28;20040;-64
2022/09/08 10:28:16;;;;;;;3.00;2.70;;;;;;;38.98;29.01;91190.56;5051881;28;20049;-64
2022/09/08 10:31:14;;;;;;;2.67;2.47;;;;;;;40.03;29.56;91198.97;5052101;28;20033;-65
2022/09/08 10:34:02;;;;;;;6.50;5.90;;;;;;;39.97;28.38;91202.97;5052036;28;20032;-65
2022/09/08 10:36:48;;;;;;;3.63;3.28;;;;;;;38.21;29.85;91187.88;5052136;28;20036;-65
2022/09/08 10:39:45;;;;;;;2.78;2.30;;;;;;;39.32;28.50;91189.09;5051802;28;20025;-65
2022/09/08 10:42:16;;;;;;;3.08;2.78;;;;;;;39.37;27.85;91185.63;5051657;28;20120;-65
2022/09/08 10:45:17;;;;;;;5.28;2.38;;;;;;;38.63;28.49;91174.50;5051746;28;20033;-65
2022/09/08 10:48:17;;;;;;;3.35;2.90;;;;;;;39.38;30.03;91184.34;5051722;28;20020;-65
2022/09/08 10:50:53;;;;;;;2.83;2.55;;;;;;;39.53;29.54;91179.53;5005444;28;20059;-64
2022/09/08 10:53:24;;;;;;;4.05;2.60;;;;;;;39.62;28.87;91181.44;5051566;28;20083;-65
2022/09/08 10:55:57;;;;;;;3.63;2.75;;;;;;;37.48;29.16;91169.66;5051629;28;20040;-64
2022/09/08 10:58:40;;;;;;;5.75;2.63;;;;;;;35.82;30.90;91173.97;5051590;28;20028;-64
2022/09/08 11:01:52;;;;;;;2.63;2.40;;;;;;;36.33;30.25;91170.63;5051508;28;20021;-64
2022/09/08 11:04:20;;;;;;;3.05;2.53;;;;;;;35.57;32.40;91169.47;5015122;28;20046;-64
2022/09/08 11:06:48;;;;;;;2.88;2.58;;;;;;;35.70;33.59;91161.81;5051630;28;20041;-64
2022/09/08 11:09:26;;;;;;;2.90;2.70;;;;;;;35.81;33.29;91172.41;5051365;28;20501;-64
2022/09/08 11:11:51;;;;;;;2.95;2.65;;;;;;;35.01;32.99;91167.00;5051166;28;20456;-64
2022/09/08 11:14:35;;;;;;;2.97;2.70;;;;;;;35.33;34.00;91160.94;5050957;28;20111;-64
2022/09/08 11:17:26;;;;;;;3.40;3.10;;;;;;;34.98;33.41;91167.91;5033208;28;20302;-64
2022/09/08 11:19:58;;;;;;;4.15;3.75;;;;;;;37.59;31.41;91158.03;5051231;28;20036;-64
2022/09/08 11:22:31;;;;;;;;;;;;;;;37.24;31.60;91163.25;5051693;28;20052;-64
2022/09/08 11:25:18;;;;;;;4.32;2.83;;;;;;;37.32;30.68;91159.72;5051350;28;19965;-65
2022/09/08 11:28:08;;;;;;;3.33;2.70;;;;;;;36.26;31.30;91146.72;5050839;28;20080;-64
2022/09/08 11:31:00;;;;;;;2.72;2.53;;;;;;;36.40;32.66;91145.34;5050989;28;20419;-65
2022/09/08 11:33:46;;;;;;;2.60;2.40;;;;;;;36.25;31.15;91159.03;5051276;28;20161;-65
2022/09/08 11:36:23;;;;;;;4.30;3.17;;;;;;;36.37;32.96;91151.84;5051122;28;20044;-64
2022/09/08 11:39:16;;;;;;;3.33;3.03;;;;;;;36.82;30.96;91156.50;5050996;28;20021;-65
2022/09/08 11:42:05;;;;;;;4.43;3.55;;;;;;;37.24;30.81;91154.94;5051191;28;20029;-64
2022/09/08 11:44:30;;;;;;;2.83;2.53;;;;;;;35.06;32.50;91155.34;5051309;28;20033;-65
2022/09/08 11:47:14;;;;;;;4.35;2.80;;;;;;;34.64;33.59;91164.06;5050915;28;20033;-65
2022/09/08 11:49:46;;;;;;;3.40;3.10;;;;;;;33.85;34.43;91159.84;5033132;28;20422;-64
2022/09/08 11:52:32;;;;;;;3.20;2.90;;;;;;;35.10;35.05;91158.75;5050869;28;20021;-64
2022/09/08 11:55:13;;;;;;;3.83;2.90;;;;;;;34.19;33.72;91159.78;5050917;28;20025;-65
2022/09/08 11:57:57;;;;;;;3.10;2.78;;;;;;;33.22;35.04;91160.75;5050679;28;20086;-64
2022/09/08 12:00:31;;;;;;;3.15;2.75;;;;;;;33.99;34.58;91156.56;5050882;28;20021;-65
2022/09/08 12:03:15;;;;;;;5.10;2.88;;;;;;;35.46;32.33;91160.06;5051086;28;20029;-65
2022/09/08 12:06:00;;;;;;;3.35;2.78;;;;;;;35.59;33.81;91155.19;5050790;28;20033;-64
2022/09/08 12:08:59;;;;;;;4.07;3.20;;;;;;;35.12;34.19;91157.06;5050706;28;20028;-65
2022/09/08 12:11:46;;;;;;;3.05;2.75;;;;;;;36.08;32.79;91157.84;5050714;28;20091;-64
2022/09/08 12:14:25;;;;;;;2.50;2.30;;;;;;;35.87;32.77;91167.84;5050797;28;20041;-64